Time;durP1;ratioP1;P1;durP2;ratioP2;P2;SDS_P1;SDS_P2;PMS_P1;PMS_P2;Temp;Humidity;BMP_temperature;BMP_pressure;BME280_temperature;BME280_humidity;BME280_pressure;Samples;Min_cycle;Max_cycle;Signal;HPM_P1;HPM_P2
2022/07/24 00:02:49;;;;;;;3.60;3.22;;;;;;;24.04;46.40;100905.13;9910273;29;20217;-79
2022/07/24 00:07:51;;;;;;;6.82;3.50;;;;;;;24.06;45.86;100898.19;9909933;30;20266;-79
2022/07/24 00:12:53;;;;;;;3.88;3.17;;;;;;;23.20;48.04;100896.44;9910762;30;20197;-79
2022/07/24 00:17:56;;;;;;;3.30;3.00;;;;;;;23.79;46.79;100883.81;9909866;30;20286;-79
2022/07/24 00:22:58;;;;;;;5.95;3.55;;;;;;;23.86;47.31;100883.94;9925261;29;20258;-79
2022/07/24 00:28:01;;;;;;;4.00;3.22;;;;;;;23.88;46.69;100874.97;9909344;30;20445;-78
2022/07/24 00:33:09;;;;;;;3.38;3.03;;;;;;;23.53;46.57;100875.94;9910636;29;20258;-79
2022/07/24 00:38:12;;;;;;;5.13;3.00;;;;;;;23.50;47.36;100875.88;9915728;29;20227;-78
2022/07/24 00:43:16;;;;;;;5.03;3.60;;;;;;;23.36;47.12;100869.88;9915595;30;20552;-78
2022/07/24 00:48:18;;;;;;;4.32;3.28;;;;;;;23.20;47.54;100869.94;9904869;30;20492;-78
2022/07/24 00:53:21;;;;;;;3.78;3.40;;;;;;;23.39;47.14;100872.81;9900617;30;20201;-77
2022/07/24 00:58:23;;;;;;;7.88;3.90;;;;;;;23.40;47.05;100870.78;9914967;30;20603;-77
2022/07/24 01:03:25;;;;;;;7.57;3.63;;;;;;;22.83;48.54;100875.22;9913578;30;20229;-78
2022/07/24 01:08:28;;;;;;;6.50;3.75;;;;;;;23.69;45.67;100867.28;9916918;30;20193;-77
2022/07/24 01:13:30;;;;;;;5.25;4.25;;;;;;;23.74;45.32;100869.03;9915391;30;20587;-77
2022/07/24 01:18:32;;;;;;;10.77;5.20;;;;;;;23.73;45.61;100873.91;9915167;30;20209;-78
2022/07/24 01:23:35;;;;;;;7.50;5.50;;;;;;;23.99;45.63;100871.16;9915328;30;20242;-77
2022/07/24 01:28:37;;;;;;;7.35;5.32;;;;;;;23.57;46.86;100876.03;9930056;29;20250;-78
2022/07/24 01:33:39;;;;;;;7.10;5.38;;;;;;;23.48;46.88;100878.31;9929005;29;20639;-79
2022/07/24 01:38:42;;;;;;;5.32;4.82;;;;;;;23.36;47.37;100872.72;9900027;30;20202;-78
2022/07/24 01:43:44;;;;;;;7.43;5.07;;;;;;;23.47;46.80;100862.38;9915637;30;20619;-79
2022/07/24 01:48:47;;;;;;;7.50;5.20;;;;;;;23.42;47.65;100868.38;9913177;29;20526;-79
2022/07/24 01:53:49;;;;;;;8.93;4.78;;;;;;;23.29;47.82;100871.38;9899416;30;20206;-78
2022/07/24 01:58:51;;;;;;;5.47;4.90;;;;;;;23.05;48.52;100863.09;9914058;30;20197;-79
2022/07/24 02:03:53;;;;;;;6.32;5.07;;;;;;;23.20;48.36;100861.38;9914131;30;20274;-78
2022/07/24 02:08:56;;;;;;;7.05;4.68;;;;;;;23.17;48.25;100860.09;9928376;29;20247;-78
2022/07/24 02:13:59;;;;;;;4.70;4.30;;;;;;;23.15;48.19;100859.63;9913515;30;20238;-79
2022/07/24 02:19:02;;;;;;;4.80;4.18;;;;;;;22.96;48.24;100853.94;9914251;30;20262;-78
2022/07/24 02:24:05;;;;;;;4.45;4.05;;;;;;;23.56;46.43;100849.50;9912773;30;20217;-78
2022/07/24 02:29:08;;;;;;;4.95;4.07;;;;;;;23.61;45.45;100849.22;9898033;30;20202;-79
2022/07/24 02:34:10;;;;;;;5.28;4.68;;;;;;;23.49;45.79;100852.22;9927358;29;20568;-78
2022/07/24 02:39:12;;;;;;;4.60;4.20;;;;;;;23.42;45.55;100845.53;9912507;30;20209;-78
2022/07/24 02:44:16;;;;;;;5.05;4.25;;;;;;;23.29;45.98;100842.84;9913361;30;20287;-78
2022/07/24 02:49:18;;;;;;;5.35;4.57;;;;;;;23.33;45.99;100838.06;9912143;30;20193;-79
2022/07/24 02:54:20;;;;;;;5.82;4.60;;;;;;;23.52;44.79;100834.34;9912851;30;20201;-78
2022/07/24 02:59:23;;;;;;;7.57;5.07;;;;;;;23.48;45.06;100827.75;9922679;29;20243;-78
2022/07/24 03:04:25;;;;;;;7.32;4.70;;;;;;;23.08;45.98;100830.97;9909794;29;20271;-79
2022/07/24 03:09:27;;;;;;;5.50;5.00;;;;;;;23.24;45.72;100823.13;9907551;29;20661;-80
2022/07/24 03:14:30;;;;;;;5.95;4.88;;;;;;;23.05;46.21;100826.00;9908177;30;20247;-79
2022/07/24 03:19:32;;;;;;;5.83;4.77;;;;;;;23.28;45.55;100821.22;9924612;29;20202;-79
2022/07/24 03:24:34;;;;;;;7.95;4.90;;;;;;;23.18;45.34;100818.94;9907309;29;20607;-79
2022/07/24 03:29:37;;;;;;;5.13;4.63;;;;;;;23.48;45.16;100824.06;9903520;30;20197;-79
2022/07/24 03:34:39;;;;;;;6.53;4.60;;;;;;;23.69;45.00;100825.28;9925226;29;20252;-79
2022/07/24 03:39:42;;;;;;;5.47;4.90;;;;;;;23.57;45.80;100824.66;9910713;30;20197;-79
2022/07/24 03:44:44;;;;;;;5.28;4.38;;;;;;;23.37;45.78;100826.69;9895917;30;20616;-79
2022/07/24 03:49:46;;;;;;;4.50;4.05;;;;;;;23.26;46.27;100826.44;9910922;30;20205;-80
2022/07/24 03:54:49;;;;;;;5.10;4.50;;;;;;;23.43;45.55;100835.78;9910607;30;20194;-78
2022/07/24 03:59:52;;;;;;;5.00;4.60;;;;;;;23.20;46.46;100833.66;9909938;30;20565;-79
2022/07/24 04:04:54;;;;;;;5.75;4.78;;;;;;;23.43;45.96;100830.06;9911360;30;20574;-79
2022/07/24 04:09:56;;;;;;;5.57;4.13;;;;;;;23.20;46.93;100832.84;9912756;29;20256;-78
2022/07/24 04:14:58;;;;;;;4.68;4.18;;;;;;;22.97;47.35;100833.56;9918440;30;20190;-78
2022/07/24 04:20:01;;;;;;;4.38;4.03;;;;;;;23.05;47.49;100839.44;9902776;30;20197;-78
2022/07/24 04:25:04;;;;;;;5.13;4.15;;;;;;;23.44;46.06;100831.72;9918404;30;20323;-78
2022/07/24 04:30:07;;;;;;;5.70;4.22;;;;;;;23.27;46.01;100825.25;9902291;29;20225;-79
2022/07/24 04:35:09;;;;;;;5.18;4.05;;;;;;;23.67;45.11;100832.59;9917048;30;20263;-79
2022/07/24 04:40:12;;;;;;;6.53;4.07;;;;;;;23.76;44.32;100824.59;9916752;30;20266;-79
2022/07/24 04:45:15;;;;;;;4.13;3.58;;;;;;;23.62;44.40;100825.13;9917424;30;20265;-79
2022/07/24 04:50:17;;;;;;;4.50;4.05;;;;;;;23.86;44.01;100826.00;9916776;30;20242;-79
2022/07/24 04:55:20;;;;;;;5.93;3.73;;;;;;;23.55;44.88;100821.34;9916494;30;20255;-79
2022/07/24 05:00:22;;;;;;;4.47;4.07;;;;;;;24.16;43.19;100817.56;9930033;29;20500;-79
2022/07/24 05:05:24;;;;;;;4.35;3.70;;;;;;;24.35;44.33;100820.31;9923242;29;20225;-79
2022/07/24 05:10:27;;;;;;;5.97;4.03;;;;;;;24.25;43.11;100818.13;9913553;29;20591;-79
2022/07/24 05:15:30;;;;;;;4.63;3.50;;;;;;;24.45;42.52;100813.94;9914588;30;20660;-79
2022/07/24 05:20:32;;;;;;;6.32;3.70;;;;;;;24.49;42.58;100826.28;9928450;29;20217;-79
2022/07/24 05:25:34;;;;;;;3.67;3.37;;;;;;;24.66;42.07;100817.16;9913775;29;20274;-80
2022/07/24 05:30:36;;;;;;;5.05;3.60;;;;;;;24.15;43.40;100811.00;9929169;29;20897;-79
2022/07/24 05:35:39;;;;;;;4.97;3.20;;;;;;;24.09;43.42;100806.03;9912132;29;20263;-79
2022/07/24 05:40:41;;;;;;;3.97;3.35;;;;;;;24.55;42.79;100806.72;9915393;29;20205;-79
2022/07/24 05:45:44;;;;;;;3.75;3.10;;;;;;;24.48;42.90;100807.47;9908972;30;20282;-79
2022/07/24 05:50:46;;;;;;;4.07;3.53;;;;;;;23.48;45.47;100832.63;9904186;29;20724;-79
2022/07/24 05:55:50;;;;;;;3.92;3.63;;;;;;;23.65;45.17;100815.81;9893755;30;20217;-79
2022/07/24 06:00:52;;;;;;;3.78;3.30;;;;;;;25.17;42.44;100815.81;9911388;30;20311;-78
2022/07/24 06:05:54;;;;;;;4.22;3.33;;;;;;;23.77;45.55;100822.56;9910740;30;20225;-79
2022/07/24 06:10:57;;;;;;;5.20;3.65;;;;;;;23.85;45.40;100822.31;9924290;29;20258;-79
2022/07/24 06:15:59;;;;;;;3.70;3.20;;;;;;;23.80;45.42;100822.63;9911381;30;20201;-79
2022/07/24 06:21:02;;;;;;;4.28;3.42;;;;;;;23.93;45.12;100818.41;9896898;30;20665;-79
2022/07/24 06:26:04;;;;;;;4.70;3.50;;;;;;;23.83;45.28;100810.44;9895427;29;20218;-79
2022/07/24 06:31:06;;;;;;;4.32;3.92;;;;;;;25.56;40.98;100805.66;9896509;29;20318;-79
2022/07/24 06:36:13;;;;;;;5.68;3.45;;;;;;;25.81;40.83;100816.56;9895369;30;20315;-78
2022/07/24 06:41:15;;;;;;;6.13;3.65;;;;;;;26.06;40.82;100806.16;9904263;30;20213;-79
2022/07/24 06:46:18;;;;;;;3.70;3.08;;;;;;;26.04;40.47;100802.84;9922984;29;20232;-79
2022/07/24 06:51:20;;;;;;;4.22;3.72;;;;;;;26.32;40.34;100802.28;9907826;29;20267;-79
2022/07/24 06:56:22;;;;;;;4.93;3.33;;;;;;;26.24;39.79;100800.53;9900870;29;20237;-79
2022/07/24 07:01:25;;;;;;;4.78;3.40;;;;;;;26.47;40.17;100804.84;9906951;29;20210;-80
2022/07/24 07:06:28;;;;;;;7.45;3.33;;;;;;;26.39;40.01;100808.06;9901075;29;20268;-79
2022/07/24 07:11:30;;;;;;;4.43;3.50;;;;;;;27.06;38.96;100799.88;9892051;30;20235;-80
2022/07/24 07:16:32;;;;;;;3.33;3.03;;;;;;;27.00;39.36;100809.28;9894946;29;20197;-80
2022/07/24 07:21:36;;;;;;;3.15;2.85;;;;;;;26.84;38.12;100816.16;9908234;29;20250;-80
2022/07/24 07:26:38;;;;;;;3.67;3.05;;;;;;;27.20;37.35;100813.47;9905754;29;20294;-80
2022/07/24 07:31:40;;;;;;;3.20;2.90;;;;;;;26.44;38.92;100825.75;9907630;29;20286;-79
2022/07/24 07:36:43;;;;;;;6.28;3.08;;;;;;;25.89;39.99;100824.00;9930837;29;20193;-79
2022/07/24 07:41:45;;;;;;;4.40;3.53;;;;;;;27.16;38.89;100816.31;9911503;29;20243;-80
2022/07/24 07:46:47;;;;;;;4.95;3.10;;;;;;;27.62;36.76;100817.75;9907267;29;20536;-79
2022/07/24 07:51:51;;;;;;;4.13;2.90;;;;;;;27.32;37.33;100820.91;9909807;30;20260;-80
2022/07/24 07:56:55;;;;;;;3.88;2.85;;;;;;;28.22;36.87;100817.81;9925144;29;20216;-80
2022/07/24 08:01:57;;;;;;;3.80;3.08;;;;;;;28.45;36.05;100815.31;9910128;30;20270;-79
2022/07/24 08:06:59;;;;;;;3.22;2.92;;;;;;;27.83;35.82;100809.97;9906842;30;20545;-80
2022/07/24 08:12:04;;;;;;;3.08;2.70;;;;;;;28.18;35.42;100811.25;9913702;29;20209;-80
2022/07/24 08:17:06;;;;;;;5.80;3.15;;;;;;;28.01;35.22;100812.03;9909828;30;20215;-79
2022/07/24 08:22:08;;;;;;;5.35;3.47;;;;;;;28.10;35.82;100812.47;9924502;29;20608;-80
2022/07/24 08:27:10;;;;;;;3.47;3.17;;;;;;;29.00;35.43;100811.94;9922036;29;20577;-80
2022/07/24 08:32:13;;;;;;;5.00;3.10;;;;;;;28.65;35.28;100807.13;9904810;29;20302;-80
2022/07/24 08:37:19;;;;;;;4.28;3.10;;;;;;;29.37;34.63;100802.75;9909029;30;20205;-79
2022/07/24 08:42:21;;;;;;;7.53;4.15;;;;;;;28.71;35.35;100802.56;9892753;30;20213;-79
2022/07/24 08:47:28;;;;;;;3.47;3.15;;;;;;;29.32;34.51;100808.97;9891690;30;20306;-80
2022/07/24 08:52:31;;;;;;;4.82;3.70;;;;;;;29.58;33.62;100810.47;9909678;30;20193;-80
2022/07/24 08:57:33;;;;;;;6.75;3.92;;;;;;;29.18;34.69;100811.88;9908877;29;20254;-79
2022/07/24 09:02:37;;;;;;;5.47;3.85;;;;;;;29.34;34.97;100806.47;9909091;29;20642;-79
2022/07/24 09:07:39;;;;;;;4.10;3.75;;;;;;;29.59;33.08;100804.25;9883158;29;20229;-79
2022/07/24 09:12:47;;;;;;;5.60;3.88;;;;;;;29.71;33.20;100805.84;9914753;30;20231;-78
2022/07/24 09:17:54;;;;;;;4.22;3.88;;;;;;;29.86;32.54;100806.56;9899179;29;20228;-78
2022/07/24 09:22:58;;;;;;;5.85;3.80;;;;;;;29.69;34.59;100790.22;9899818;30;20258;-79
2022/07/24 09:28:08;;;;;;;4.88;4.15;;;;;;;29.94;33.14;100785.94;9909619;29;20306;-78
2022/07/24 09:33:19;;;;;;;6.85;4.05;;;;;;;29.48;32.45;100791.16;9924352;29;20240;-79
2022/07/24 09:38:23;;;;;;;5.70;4.63;;;;;;;30.11;32.13;100778.34;9911294;29;20255;-78
2022/07/24 09:43:30;;;;;;;5.88;4.65;;;;;;;29.96;31.90;100771.91;9894590;29;20198;-80
2022/07/24 09:48:54;;;;;;;5.97;4.90;;;;;;;29.66;32.59;100775.41;9894276;30;20643;-78
2022/07/24 09:53:58;;;;;;;4.90;4.10;;;;;;;30.53;32.53;100759.81;9910050;30;20217;-78
2022/07/24 09:59:07;;;;;;;4.38;3.97;;;;;;;30.41;31.80;100756.66;9910204;29;20262;-80
2022/07/24 10:04:13;;;;;;;6.38;4.75;;;;;;;30.51;31.44;100752.84;9910855;29;20615;-79
2022/07/24 10:09:19;;;;;;;5.82;4.90;;;;;;;30.29;31.54;100761.72;9894649;30;20500;-81
2022/07/24 10:14:22;;;;;;;7.43;4.70;;;;;;;31.38;31.59;100746.44;9910099;30;20209;-78
2022/07/24 10:19:28;;;;;;;4.20;3.80;;;;;;;30.67;31.00;100750.19;9910464;29;20239;-79
2022/07/24 10:24:49;;;;;;;6.40;4.50;;;;;;;30.82;33.03;100745.91;9881511;30;20241;-78
2022/07/24 10:29:53;;;;;;;5.63;4.45;;;;;;;31.04;31.04;100735.72;9909992;29;20235;-79
2022/07/24 10:35:19;;;;;;;8.07;4.10;;;;;;;31.21;30.36;100736.72;9912171;30;20225;-79
2022/07/24 10:40:57;;;;;;;6.55;4.22;;;;;;;31.30;31.42;100730.44;9912414;30;20270;-79
2022/07/24 10:45:59;;;;;;;5.50;4.35;;;;;;;31.32;29.68;100725.03;9899078;30;20248;-79
2022/07/24 10:51:03;;;;;;;6.00;4.30;;;;;;;31.32;29.79;100730.81;9907595;29;20201;-78
2022/07/24 10:56:16;;;;;;;7.55;4.47;;;;;;;31.70;29.47;100717.81;9906820;29;20227;-79
2022/07/24 11:01:32;;;;;;;5.45;4.65;;;;;;;32.22;30.52;100723.13;9905662;29;20266;-78
2022/07/24 11:06:44;;;;;;;5.70;4.43;;;;;;;31.59;29.63;100714.28;9885956;29;20245;-79
2022/07/24 11:11:52;;;;;;;5.18;4.68;;;;;;;31.59;29.34;100704.81;9911412;29;20197;-79
2022/07/24 11:16:55;;;;;;;4.40;4.00;;;;;;;31.58;29.00;100700.28;9919960;29;20197;-79
2022/07/24 11:22:02;;;;;;;5.10;4.18;;;;;;;32.11;29.09;100705.97;9905543;29;20266;-79
2022/07/24 11:27:17;;;;;;;5.57;4.32;;;;;;;32.52;29.73;100693.22;9901551;29;20293;-79
2022/07/24 11:32:20;;;;;;;4.57;4.05;;;;;;;32.01;30.29;100691.72;9897077;29;20269;-78
2022/07/24 11:37:29;;;;;;;6.03;4.28;;;;;;;32.07;29.10;100687.03;9900658;29;20235;-77
2022/07/24 11:42:37;;;;;;;4.45;4.05;;;;;;;32.15;27.70;100679.88;9891575;29;20266;-79
2022/07/24 11:47:39;;;;;;;5.90;3.83;;;;;;;32.85;27.45;100673.09;9909044;30;20321;-78
2022/07/24 11:52:41;;;;;;;6.65;4.03;;;;;;;31.87;28.32;100668.81;9909410;30;20209;-78
2022/07/24 11:57:47;;;;;;;8.32;4.20;;;;;;;32.71;27.71;100660.53;9899890;30;20553;-79
2022/07/24 12:03:11;;;;;;;5.10;4.20;;;;;;;32.05;27.30;100657.75;9887568;29;20266;-79
2022/07/24 12:08:26;;;;;;;4.25;3.88;;;;;;;31.75;27.79;100656.59;9902634;29;20641;-80
2022/07/24 12:13:30;;;;;;;6.03;3.80;;;;;;;32.85;26.83;100644.97;9893159;30;20537;-80
2022/07/24 12:18:33;;;;;;;5.60;4.32;;;;;;;32.77;26.20;100643.50;9888045;30;20225;-79
2022/07/24 12:23:37;;;;;;;3.78;3.47;;;;;;;32.77;26.76;100647.22;9907238;29;20259;-78
2022/07/24 12:28:40;;;;;;;6.03;4.15;;;;;;;33.25;25.38;100647.78;9903851;29;20221;-79
2022/07/24 12:33:53;;;;;;;4.47;3.45;;;;;;;32.89;26.22;100642.81;9885246;29;20325;-78
2022/07/24 12:38:56;;;;;;;4.03;3.72;;;;;;;32.54;25.20;100643.56;9903712;29;20294;-79
2022/07/24 12:43:59;;;;;;;4.72;3.45;;;;;;;33.36;24.76;100636.75;9903469;29;20326;-78
2022/07/24 12:49:12;;;;;;;4.25;3.80;;;;;;;33.20;27.46;100625.13;9903722;29;20806;-80
2022/07/24 12:54:35;;;;;;;3.88;3.47;;;;;;;33.13;25.07;100615.31;9907115;29;20668;-79
2022/07/24 12:59:42;;;;;;;4.50;3.67;;;;;;;33.33;25.31;100606.59;9908795;29;20520;-80
2022/07/24 13:04:49;;;;;;;4.13;3.70;;;;;;;33.98;25.26;100599.94;9909144;29;20286;-79
2022/07/24 13:09:52;;;;;;;5.13;3.92;;;;;;;33.99;25.54;100610.28;9899474;29;20201;-80
2022/07/24 13:14:54;;;;;;;2.97;2.78;;;;;;;33.56;23.98;100593.97;9887357;29;20225;-79
2022/07/24 13:19:56;;;;;;;6.78;3.83;;;;;;;33.98;24.17;100585.41;9909771;29;20206;-81
2022/07/24 13:24:59;;;;;;;3.72;3.30;;;;;;;33.59;24.53;100581.47;9922005;29;20275;-80
2022/07/24 13:30:02;;;;;;;3.97;3.58;;;;;;;33.63;23.90;100579.28;9903868;29;20634;-80
2022/07/24 13:35:04;;;;;;;4.15;3.72;;;;;;;33.88;24.04;100569.09;9910391;29;20225;-80
2022/07/24 13:40:11;;;;;;;5.20;4.07;;;;;;;33.57;24.83;100572.41;9893396;29;20210;-80
2022/07/24 13:45:14;;;;;;;6.22;3.83;;;;;;;33.89;24.48;100559.13;9905893;29;20612;-81
2022/07/24 13:50:16;;;;;;;4.93;3.58;;;;;;;34.07;23.81;100548.66;9911055;29;20214;-79
2022/07/24 13:55:19;;;;;;;4.80;3.60;;;;;;;33.82;25.24;100545.66;9913423;29;20202;-78
2022/07/24 14:00:21;;;;;;;6.53;3.70;;;;;;;34.41;24.37;100544.34;9927071;29;21560;-80
2022/07/24 14:05:24;;;;;;;3.75;3.42;;;;;;;33.52;25.25;100535.25;9912024;29;20639;-78
2022/07/24 14:10:27;;;;;;;4.03;3.67;;;;;;;33.22;26.04;100529.84;9913174;29;20230;-79
2022/07/24 14:15:30;;;;;;;4.45;3.65;;;;;;;34.24;24.97;100505.88;9901253;29;20233;-81
2022/07/24 14:20:33;;;;;;;3.95;3.58;;;;;;;34.40;24.50;100514.50;9900659;29;20625;-80
2022/07/24 14:25:35;;;;;;;3.72;3.42;;;;;;;34.22;25.41;100511.34;9908341;29;20240;-80
2022/07/24 14:30:38;;;;;;;4.10;3.72;;;;;;;34.02;24.98;100511.47;9912329;29;20256;-80
2022/07/24 14:35:40;;;;;;;5.60;3.97;;;;;;;34.72;25.61;100490.28;9907129;29;20198;-81
2022/07/24 14:40:43;;;;;;;5.88;3.75;;;;;;;34.36;25.49;100490.56;9908757;29;20237;-80
2022/07/24 14:45:45;;;;;;;6.97;6.05;;;;;;;34.61;25.18;100474.44;9895006;29;20635;-80
2022/07/24 14:50:48;;;;;;;3.47;3.17;;;;;;;34.20;23.94;100467.44;9922837;29;20205;-81
2022/07/24 14:55:50;;;;;;;4.82;3.70;;;;;;;34.03;24.66;100460.88;9901426;29;20221;-80
2022/07/24 15:00:52;;;;;;;4.50;3.78;;;;;;;33.84;25.05;100458.97;9906672;29;20664;-81
2022/07/24 15:05:55;;;;;;;4.68;3.65;;;;;;;34.67;24.77;100446.44;9917653;29;20286;-78
2022/07/24 15:10:57;;;;;;;4.30;3.97;;;;;;;34.26;24.22;100442.38;9891727;29;20301;-79
2022/07/24 15:15:59;;;;;;;5.57;3.72;;;;;;;34.36;23.78;100441.22;9885021;29;20676;-79
2022/07/24 15:21:02;;;;;;;4.30;3.90;;;;;;;34.32;24.47;100431.78;9892403;29;20485;-79
2022/07/24 15:26:05;;;;;;;5.60;3.25;;;;;;;34.22;25.86;100424.25;9911106;29;20286;-79
2022/07/24 15:31:07;;;;;;;4.93;3.35;;;;;;;34.35;25.50;100413.44;9904803;29;20241;-79
2022/07/24 15:36:11;;;;;;;4.82;3.42;;;;;;;34.11;24.68;100409.22;9930291;29;20204;-79
2022/07/24 15:41:14;;;;;;;4.80;3.97;;;;;;;34.78;25.36;100403.34;9882038;29;20236;-80
2022/07/24 15:46:16;;;;;;;4.20;3.80;;;;;;;34.56;25.44;100398.22;9873472;29;20716;-80
2022/07/24 15:51:19;;;;;;;4.90;3.45;;;;;;;34.21;25.00;100399.41;9908794;29;20596;-79
2022/07/24 15:56:21;;;;;;;4.03;3.67;;;;;;;34.24;26.37;100389.78;9906174;29;20639;-80
2022/07/24 16:01:23;;;;;;;3.83;3.53;;;;;;;33.85;25.75;100390.97;9889935;29;20229;-80
2022/07/24 16:06:46;;;;;;;5.28;3.92;;;;;;;34.27;25.20;100377.19;9902741;29;20236;-79
2022/07/24 16:11:48;;;;;;;4.47;4.07;;;;;;;34.00;25.21;100376.84;9908071;29;20201;-78
2022/07/24 16:16:56;;;;;;;6.18;4.18;;;;;;;34.16;26.00;100373.81;9900286;29;20227;-79
2022/07/24 16:21:59;;;;;;;4.72;4.00;;;;;;;33.52;25.69;100361.28;9888631;29;20229;-79
2022/07/24 16:27:01;;;;;;;4.25;3.85;;;;;;;33.19;26.32;100371.34;9884477;29;20244;-79
2022/07/24 16:32:04;;;;;;;4.80;4.40;;;;;;;33.68;25.82;100351.69;9897548;29;20314;-79
2022/07/24 16:37:06;;;;;;;4.35;3.67;;;;;;;33.99;26.09;100346.19;9898611;30;20221;-79
2022/07/24 16:42:10;;;;;;;4.72;3.97;;;;;;;33.74;26.23;100344.09;9896797;29;20303;-79
2022/07/24 16:47:12;;;;;;;6.82;4.22;;;;;;;33.80;25.95;100340.13;9859012;29;20374;-79
2022/07/24 16:52:21;;;;;;;7.00;3.65;;;;;;;33.33;26.60;100336.19;9857882;29;20241;-80
2022/07/24 16:57:43;;;;;;;5.13;4.65;;;;;;;33.67;26.51;100327.66;9880760;29;20225;-80
2022/07/24 17:02:47;;;;;;;5.35;4.22;;;;;;;33.78;26.12;100319.47;9880046;29;20262;-79
2022/07/24 17:07:49;;;;;;;4.88;4.30;;;;;;;33.82;26.17;100320.19;9884639;29;20317;-80
2022/07/24 17:12:52;;;;;;;4.57;4.15;;;;;;;33.98;26.65;100312.66;9900455;29;20241;-79
2022/07/24 17:17:57;;;;;;;4.22;3.92;;;;;;;33.88;25.72;100319.59;9886902;29;20233;-79
2022/07/24 17:23:01;;;;;;;5.15;4.65;;;;;;;33.96;26.01;100310.22;9912691;29;20293;-79
2022/07/24 17:28:06;;;;;;;7.75;4.50;;;;;;;34.05;25.77;100312.41;9889890;29;20639;-80
2022/07/24 17:33:08;;;;;;;4.68;4.38;;;;;;;33.92;25.88;100306.59;9886156;29;20352;-78
2022/07/24 17:38:11;;;;;;;4.43;4.00;;;;;;;33.76;27.33;100301.72;9873244;29;20557;-80
2022/07/24 17:43:17;;;;;;;5.38;4.40;;;;;;;33.88;26.73;100296.38;9877060;29;20229;-80
2022/07/24 17:48:20;;;;;;;7.30;4.28;;;;;;;33.87;26.79;100294.78;9882947;29;20343;-79
2022/07/24 17:53:22;;;;;;;3.88;3.58;;;;;;;34.03;25.85;100298.34;9894855;29;20593;-79
2022/07/24 17:58:25;;;;;;;4.70;4.30;;;;;;;34.15;26.39;100296.72;9890187;29;20225;-79
2022/07/24 18:03:27;;;;;;;3.83;3.50;;;;;;;33.83;26.61;100289.09;9908035;29;20294;-79
2022/07/24 18:08:30;;;;;;;4.30;3.90;;;;;;;34.02;26.97;100290.91;9900077;29;20248;-80
2022/07/24 18:13:32;;;;;;;5.07;4.28;;;;;;;34.03;26.92;100280.13;9884401;29;20291;-79
2022/07/24 18:18:35;;;;;;;4.97;4.30;;;;;;;34.05;26.44;100278.38;9879706;29;20233;-79
2022/07/24 18:23:37;;;;;;;5.32;4.45;;;;;;;33.88;27.41;100276.06;9888644;29;20229;-80
2022/07/24 18:28:39;;;;;;;6.05;5.45;;;;;;;33.81;28.16;100275.03;9902794;29;20644;-80
2022/07/24 18:33:42;;;;;;;6.70;4.68;;;;;;;33.75;28.51;100276.88;9893580;29;20309;-79
2022/07/24 18:38:44;;;;;;;5.68;4.82;;;;;;;33.44;29.31;100267.09;9895449;29;20224;-79
2022/07/24 18:43:49;;;;;;;4.82;4.40;;;;;;;33.38;29.75;100263.13;9886325;29;20228;-78
2022/07/24 18:48:52;;;;;;;5.00;4.40;;;;;;;32.99;29.60;100261.38;9893456;29;20310;-78
2022/07/24 18:53:55;;;;;;;5.18;4.68;;;;;;;32.76;29.81;100256.66;9904397;29;20564;-80
2022/07/24 18:58:58;;;;;;;5.72;5.22;;;;;;;32.79;30.27;100253.66;9900874;29;20229;-80
2022/07/24 19:04:03;;;;;;;7.28;5.13;;;;;;;32.89;30.30;100257.50;9902773;29;20876;-80
2022/07/24 19:09:06;;;;;;;8.75;4.72;;;;;;;32.86;30.03;100252.63;9896825;29;20314;-78
2022/07/24 19:14:09;;;;;;;13.63;9.20;;;;;;;32.35;32.60;100258.16;9891935;29;20270;-80
2022/07/24 19:19:11;;;;;;;6.55;5.93;;;;;;;32.19;32.12;100263.91;9919400;29;20233;-79
2022/07/24 19:24:21;;;;;;;8.05;5.55;;;;;;;31.52;34.26;100260.56;9902540;29;20249;-79
2022/07/24 19:29:44;;;;;;;6.38;5.05;;;;;;;31.41;33.75;100265.75;9915182;29;20264;-79
2022/07/24 19:34:47;;;;;;;6.72;4.70;;;;;;;31.42;33.84;100262.44;9891950;29;20260;-79
2022/07/24 19:39:49;;;;;;;7.38;6.68;;;;;;;30.92;35.63;100262.66;9892387;29;20225;-79
2022/07/24 19:44:52;;;;;;;6.25;5.65;;;;;;;31.16;35.31;100262.56;9872960;29;20692;-80
2022/07/24 19:49:54;;;;;;;7.07;5.20;;;;;;;30.67;36.64;100259.41;9884797;29;20254;-80
2022/07/24 19:54:57;;;;;;;7.53;5.50;;;;;;;30.61;37.85;100259.13;9882953;29;20567;-80
2022/07/24 20:00:00;;;;;;;7.60;6.20;;;;;;;30.52;38.27;100261.75;9900112;29;20233;-80
2022/07/24 20:05:02;;;;;;;13.38;11.85;;;;;;;30.52;38.88;100266.72;9882947;30;20233;-80
2022/07/24 20:10:05;;;;;;;11.18;7.88;;;;;;;30.33;39.41;100266.25;9894001;29;20287;-79
2022/07/24 20:15:14;;;;;;;23.50;19.10;;;;;;;30.45;39.06;100255.31;9908923;29;20244;-81
2022/07/24 20:20:17;;;;;;;16.60;13.18;;;;;;;30.28;39.92;100260.97;9896053;30;20259;-80
2022/07/24 20:25:19;;;;;;;10.48;9.35;;;;;;;30.13;40.35;100268.19;9907921;29;20601;-81
2022/07/24 20:30:22;;;;;;;7.35;6.50;;;;;;;30.26;40.18;100272.13;9897868;29;20592;-80
2022/07/24 20:35:24;;;;;;;6.47;5.85;;;;;;;30.14;39.54;100257.47;9907726;29;20244;-82
2022/07/24 20:40:26;;;;;;;8.57;7.68;;;;;;;30.27;39.58;100261.41;9900985;30;20266;-79
2022/07/24 20:45:35;;;;;;;6.65;6.05;;;;;;;30.29;38.98;100248.16;9896040;29;20627;-80
2022/07/24 20:50:38;;;;;;;10.68;6.97;;;;;;;30.61;39.02;100243.88;9895453;29;20302;-80
2022/07/24 20:55:40;;;;;;;8.30;5.85;;;;;;;30.16;39.41;100250.03;9898219;30;20581;-80
2022/07/24 21:00:49;;;;;;;6.40;5.72;;;;;;;30.19;39.77;100245.44;9904942;30;20224;-81
2022/07/24 21:05:52;;;;;;;7.57;5.63;;;;;;;29.97;39.57;100237.19;9891633;29;20302;-78
2022/07/24 21:10:55;;;;;;;7.22;5.85;;;;;;;30.26;39.21;100225.16;9874214;29;20262;-80
2022/07/24 21:15:57;;;;;;;6.25;5.75;;;;;;;30.28;38.78;100219.75;9898265;29;20229;-79
2022/07/24 21:21:00;;;;;;;7.32;5.75;;;;;;;30.50;38.50;100220.16;9864473;29;20712;-78
2022/07/24 21:26:02;;;;;;;6.25;5.65;;;;;;;30.32;38.04;100221.34;9894119;30;20317;-80
2022/07/24 21:31:05;;;;;;;8.10;6.05;;;;;;;30.32;38.35;100212.69;9893306;29;20731;-78
2022/07/24 21:36:07;;;;;;;7.13;6.07;;;;;;;30.32;36.59;100212.69;9918742;29;20921;-78
2022/07/24 21:41:09;;;;;;;5.55;5.10;;;;;;;30.18;37.28;100206.31;9903708;30;20759;-78
2022/07/24 21:46:12;;;;;;;6.22;5.47;;;;;;;30.24;37.00;100195.94;9905489;30;20275;-78
2022/07/24 21:51:15;;;;;;;5.65;5.15;;;;;;;30.12;36.87;100185.81;9902975;30;20379;-79
2022/07/24 21:56:17;;;;;;;5.97;5.47;;;;;;;30.21;36.45;100183.19;9918640;29;20241;-79
2022/07/24 22:01:19;;;;;;;6.20;5.30;;;;;;;30.05;37.08;100180.19;9888096;30;20289;-79
2022/07/24 22:06:33;;;;;;;6.82;5.10;;;;;;;30.10;36.75;100171.03;9904187;29;20249;-79
2022/07/24 22:11:36;;;;;;;6.47;5.30;;;;;;;30.04;36.31;100172.78;9903092;30;20682;-78
2022/07/24 22:16:38;;;;;;;7.93;6.10;;;;;;;30.03;36.79;100161.69;9903669;30;21038;-77
2022/07/24 22:21:41;;;;;;;7.72;5.65;;;;;;;29.56;38.38;100165.34;9898241;29;20237;-78
2022/07/24 22:26:44;;;;;;;5.72;5.15;;;;;;;29.42;39.16;100165.56;9904013;30;20570;-78
2022/07/24 22:31:46;;;;;;;7.70;5.88;;;;;;;29.50;38.03;100161.31;9903401;29;20264;-77
2022/07/24 22:36:50;;;;;;;6.05;5.28;;;;;;;29.26;38.41;100162.53;9900819;29;20282;-77
2022/07/24 22:41:53;;;;;;;6.32;5.57;;;;;;;28.93;38.42;100167.91;9897099;29;20543;-77
2022/07/24 22:46:55;;;;;;;7.78;5.90;;;;;;;28.90;38.76;100157.25;9898389;29;20885;-78
2022/07/24 22:51:58;;;;;;;8.80;5.63;;;;;;;27.71;40.25;100148.66;9877904;29;20290;-77
2022/07/24 22:57:00;;;;;;;7.72;5.40;;;;;;;29.17;36.46;100136.31;9902050;29;20237;-77
2022/07/24 23:02:03;;;;;;;6.60;5.40;;;;;;;28.86;36.76;100149.91;9907599;29;20257;-77
2022/07/24 23:07:06;;;;;;;6.78;5.88;;;;;;;28.17;37.33;100143.28;9925840;29;20236;-77
2022/07/24 23:12:08;;;;;;;6.28;5.68;;;;;;;28.07;37.75;100132.69;9903930;29;20688;-78
2022/07/24 23:17:10;;;;;;;7.03;6.32;;;;;;;29.02;35.20;100129.13;9920812;29;20300;-77
2022/07/24 23:22:13;;;;;;;5.60;5.00;;;;;;;28.51;35.67;100117.44;9897547;29;20248;-78
2022/07/24 23:27:15;;;;;;;6.60;6.00;;;;;;;27.95;36.91;100118.88;9913131;29;20245;-78
2022/07/24 23:32:17;;;;;;;6.72;5.18;;;;;;;28.04;36.24;100104.81;9909552;29;20280;-77